Terminal Aerodrome Forecast
Issued by NWS Cleveland, OH

Home | Current Version | Previous Version | Graphics & Text | Print | Product List | Glossary Off
Versions: 1 2 3 4 5 6 7 8 9 10 11 12 13 14 15 16 17 18 19

027
FTUS41 KCLE 151120
TAFMFD
TAF
KMFD 151120Z 1512/1612 18006KT P6SM OVC035
     FM151800 23012G20KT P6SM OVC012
     FM152300 25013KT P6SM SCT015 OVC030=

USA.gov is the U.S. government's official web portal to all federal, state and local government web resources and services.